createdAt,value
2018-08-12T00:00:51.773Z,15.37
2018-08-12T00:03:19.818Z,15.31
2018-08-12T00:05:47.860Z,15.25
2018-08-12T00:08:15.888Z,15.19
2018-08-12T00:10:43.926Z,15.16
2018-08-12T00:13:11.967Z,15.12
2018-08-12T00:15:40.170Z,15.07
2018-08-12T00:18:08.188Z,15.04
2018-08-12T00:20:36.213Z,15.03
2018-08-12T00:23:04.604Z,14.99
2018-08-12T00:25:32.660Z,14.96
2018-08-12T00:28:00.709Z,14.92
2018-08-12T00:30:28.743Z,14.86
2018-08-12T00:32:56.790Z,14.84
2018-08-12T00:35:24.807Z,14.83
2018-08-12T00:37:52.835Z,14.78
2018-08-12T00:40:21.005Z,14.76
2018-08-12T00:42:49.032Z,14.73
2018-08-12T00:45:19.338Z,14.72
2018-08-12T00:47:47.782Z,14.69
2018-08-12T00:50:16.520Z,14.64
2018-08-12T00:52:44.623Z,14.60
2018-08-12T00:55:14.745Z,14.58
2018-08-12T00:57:43.671Z,14.54
2018-08-12T01:00:15.545Z,14.47
2018-08-12T01:02:43.577Z,14.45
2018-08-12T01:05:13.553Z,14.40
2018-08-12T01:07:41.944Z,14.36
2018-08-12T01:10:10.793Z,14.34
2018-08-12T01:12:39.065Z,14.33
2018-08-12T01:15:10.551Z,14.30
2018-08-12T01:17:38.688Z,14.28
2018-08-12T01:20:08.077Z,14.24
2018-08-12T01:22:36.108Z,14.22
2018-08-12T01:25:05.948Z,14.20
2018-08-12T01:27:34.127Z,14.17
2018-08-12T01:30:02.164Z,14.16
2018-08-12T01:32:30.193Z,14.14
2018-08-12T01:34:58.228Z,14.10
2018-08-12T01:37:26.253Z,14.07
2018-08-12T01:39:54.285Z,14.02
2018-08-12T01:42:22.316Z,13.98
2018-08-12T01:44:50.377Z,13.91
2018-08-12T01:47:18.421Z,13.89
2018-08-12T01:49:46.774Z,13.86
2018-08-12T01:52:14.802Z,13.84
2018-08-12T01:54:42.834Z,13.83
2018-08-12T01:57:10.875Z,13.84
2018-08-12T01:59:38.905Z,13.81
2018-08-12T02:02:06.954Z,13.77
2018-08-12T02:04:34.994Z,13.75
2018-08-12T02:07:03.181Z,13.71
2018-08-12T02:09:37.773Z,13.68
2018-08-12T02:12:05.798Z,13.64
2018-08-12T02:14:33.836Z,13.60
2018-08-12T02:17:01.881Z,13.56
2018-08-12T02:19:29.930Z,13.55
2018-08-12T02:21:58.104Z,13.52
2018-08-12T02:24:26.128Z,13.51
2018-08-12T02:26:54.164Z,13.50
2018-08-12T02:29:22.196Z,13.48
2018-08-12T02:31:50.246Z,13.45
2018-08-12T02:34:18.289Z,13.41
2018-08-12T02:36:46.325Z,13.40
2018-08-12T02:39:14.374Z,13.35
2018-08-12T02:41:42.442Z,13.32
2018-08-12T02:44:17.124Z,13.30
2018-08-12T02:46:45.368Z,13.29
2018-08-12T02:49:13.440Z,13.31
2018-08-12T02:51:41.476Z,13.29
2018-08-12T02:54:09.516Z,13.28
2018-08-12T02:56:37.568Z,13.23
2018-08-12T02:59:05.650Z,13.21
2018-08-12T03:01:39.948Z,13.23
2018-08-12T03:04:07.989Z,13.26
2018-08-12T03:06:36.009Z,13.25
2018-08-12T03:09:08.197Z,13.26
2018-08-12T03:11:36.241Z,13.28
2018-08-12T03:14:05.432Z,13.30
2018-08-12T03:16:33.475Z,13.33
2018-08-12T03:19:01.507Z,13.34
2018-08-12T03:21:29.529Z,13.35
2018-08-12T03:23:57.630Z,13.37
2018-08-12T03:26:25.825Z,13.38
2018-08-12T03:28:53.870Z,13.40
2018-08-12T03:31:21.902Z,13.39
2018-08-12T03:33:49.956Z,13.40
2018-08-12T03:36:17.994Z,13.41
2018-08-12T03:38:46.046Z,13.41
2018-08-12T03:41:14.084Z,13.43
2018-08-12T03:43:42.136Z,13.46
2018-08-12T03:46:10.354Z,13.46
2018-08-12T03:48:38.413Z,13.46
2018-08-12T03:51:06.461Z,13.45
2018-08-12T03:53:34.829Z,13.44
2018-08-12T03:56:02.855Z,13.44
2018-08-12T03:58:30.892Z,13.44
2018-08-12T04:00:59.093Z,13.44
2018-08-12T04:03:27.098Z,13.46
2018-08-12T04:05:55.144Z,13.46
2018-08-12T04:08:23.185Z,13.45
2018-08-12T04:10:51.209Z,13.47
2018-08-12T04:13:19.229Z,13.48
2018-08-12T04:15:47.249Z,13.49
2018-08-12T04:18:15.273Z,13.51
2018-08-12T04:20:43.313Z,13.54
2018-08-12T04:23:11.371Z,13.60
2018-08-12T04:25:39.391Z,13.65
2018-08-12T04:28:07.416Z,13.72
2018-08-12T04:30:35.450Z,13.80
2018-08-12T04:33:03.831Z,13.87
2018-08-12T04:35:31.861Z,13.96
2018-08-12T04:37:59.868Z,14.03
2018-08-12T04:40:28.072Z,14.12
2018-08-12T04:42:56.104Z,14.19
2018-08-12T04:45:24.132Z,14.27
2018-08-12T04:47:52.148Z,14.35
2018-08-12T04:50:20.184Z,14.43
2018-08-12T04:52:48.217Z,14.50
2018-08-12T04:55:16.232Z,14.56
2018-08-12T04:57:44.252Z,14.64
2018-08-12T05:00:12.284Z,14.71
2018-08-12T05:02:40.316Z,14.78
2018-08-12T05:05:08.797Z,14.87
2018-08-12T05:07:36.820Z,14.96
2018-08-12T05:10:05.781Z,15.05
2018-08-12T05:12:34.092Z,15.16
2018-08-12T05:15:02.132Z,15.25
2018-08-12T05:17:30.204Z,15.32
2018-08-12T05:19:58.233Z,15.41
2018-08-12T05:22:26.248Z,15.48
2018-08-12T05:24:54.261Z,15.53
2018-08-12T05:27:22.292Z,15.61
2018-08-12T05:29:50.316Z,15.70
2018-08-12T05:32:18.336Z,15.77
2018-08-12T05:34:46.508Z,15.84
2018-08-12T05:37:14.527Z,15.89
2018-08-12T05:39:42.568Z,15.95
2018-08-12T05:42:10.732Z,16.02
2018-08-12T05:44:38.772Z,16.09
2018-08-12T05:47:06.789Z,16.17
2018-08-12T05:49:35.098Z,16.27
2018-08-12T05:52:03.125Z,16.35
2018-08-12T05:54:31.161Z,16.40
2018-08-12T05:56:59.214Z,16.45
2018-08-12T05:59:27.252Z,16.51
2018-08-12T06:01:55.309Z,16.56
2018-08-12T06:04:23.352Z,16.61
2018-08-12T06:06:51.548Z,16.68
2018-08-12T06:09:19.573Z,16.73
2018-08-12T06:11:47.600Z,16.77
2018-08-12T06:14:15.809Z,16.80
2018-08-12T06:16:43.849Z,16.85
2018-08-12T06:19:11.874Z,16.93
2018-08-12T06:21:39.918Z,17.01
2018-08-12T06:24:07.967Z,17.08
2018-08-12T06:26:36.250Z,17.16
2018-08-12T06:29:05.005Z,17.23
2018-08-12T06:31:33.084Z,17.32
2018-08-12T06:34:01.102Z,17.40
2018-08-12T06:36:29.141Z,17.48
2018-08-12T06:38:57.277Z,17.54
2018-08-12T06:41:25.597Z,17.60
2018-08-12T06:43:53.634Z,17.68
2018-08-12T06:46:21.713Z,17.76
2018-08-12T06:48:49.720Z,17.83
2018-08-12T06:51:17.777Z,17.93
2018-08-12T06:53:45.808Z,17.99
2018-08-12T06:56:13.845Z,18.06
2018-08-12T06:58:41.885Z,18.15
2018-08-12T07:01:09.929Z,18.19
2018-08-12T07:03:38.232Z,18.25
2018-08-12T07:06:06.267Z,18.30
2018-08-12T07:08:34.552Z,18.33
2018-08-12T07:11:02.593Z,18.40
2018-08-12T07:13:30.844Z,18.44
2018-08-12T07:15:58.881Z,18.50
2018-08-12T07:18:27.025Z,18.54
2018-08-12T07:20:55.070Z,18.57
2018-08-12T07:23:23.105Z,18.62
2018-08-12T07:25:51.134Z,18.66
2018-08-12T07:28:19.273Z,18.72
2018-08-12T07:30:47.309Z,18.80
2018-08-12T07:33:15.496Z,18.85
2018-08-12T07:35:43.536Z,18.93
2018-08-12T07:38:11.577Z,19.02
2018-08-12T07:40:39.645Z,19.09
2018-08-12T07:43:07.693Z,19.17
2018-08-12T07:45:35.721Z,19.30
2018-08-12T07:48:03.821Z,19.48
2018-08-12T07:50:31.868Z,19.65
2018-08-12T07:52:59.921Z,19.90
2018-08-12T07:55:27.996Z,20.18
2018-08-12T07:57:56.408Z,20.29
2018-08-12T08:00:24.445Z,20.39
2018-08-12T08:02:52.481Z,20.52
2018-08-12T08:05:20.530Z,20.72
2018-08-12T08:07:48.564Z,20.93
2018-08-12T08:10:17.574Z,21.16
2018-08-12T08:12:45.849Z,21.46
2018-08-12T08:15:20.380Z,21.69
2018-08-12T08:17:48.645Z,21.91
2018-08-12T08:20:16.927Z,22.06
2018-08-12T08:22:45.449Z,22.19
2018-08-12T08:25:13.699Z,22.26
2018-08-12T08:27:41.771Z,22.28
2018-08-12T08:30:12.465Z,22.28
2018-08-12T08:32:40.852Z,22.31
2018-08-12T08:35:09.344Z,22.42
2018-08-12T08:37:37.555Z,22.49
2018-08-12T08:40:10.384Z,22.67
2018-08-12T08:42:38.442Z,22.93
2018-08-12T08:45:12.672Z,23.07
2018-08-12T08:47:40.715Z,23.28
2018-08-12T08:50:08.928Z,23.48
2018-08-12T08:52:37.512Z,23.63
2018-08-12T08:55:06.499Z,23.75
2018-08-12T08:57:34.556Z,23.86
2018-08-12T09:00:02.644Z,23.98
2018-08-12T09:02:31.032Z,24.10
2018-08-12T09:04:59.052Z,24.29
2018-08-12T09:07:27.100Z,24.40
2018-08-12T09:09:55.361Z,24.33
2018-08-12T09:12:23.411Z,24.30
2018-08-12T09:14:51.456Z,24.30
2018-08-12T09:17:19.602Z,24.42
2018-08-12T09:19:47.671Z,24.50
2018-08-12T09:22:15.693Z,24.54
2018-08-12T09:24:43.725Z,24.54
2018-08-12T09:27:11.776Z,24.70
2018-08-12T09:29:39.941Z,24.91
2018-08-12T09:32:08.034Z,25.12
2018-08-12T09:34:36.077Z,25.19
2018-08-12T09:37:05.110Z,25.31
2018-08-12T09:39:33.149Z,25.36
2018-08-12T09:42:01.173Z,25.39
2018-08-12T09:44:29.207Z,25.33
2018-08-12T09:46:57.243Z,25.19
2018-08-12T09:49:25.268Z,25.20
2018-08-12T09:51:53.583Z,25.25
2018-08-12T09:54:21.516Z,25.26
2018-08-12T09:56:49.552Z,25.30
2018-08-12T09:59:17.602Z,25.54
2018-08-12T10:01:45.875Z,25.88
2018-08-12T10:04:13.901Z,26.39
2018-08-12T10:06:42.098Z,26.81
2018-08-12T10:09:11.388Z,27.16
2018-08-12T10:11:39.660Z,27.52
2018-08-12T10:14:08.328Z,27.54
2018-08-12T10:16:36.510Z,27.75
2018-08-12T10:19:05.079Z,28.04
2018-08-12T10:21:33.164Z,28.23
2018-08-12T10:24:01.183Z,28.38
2018-08-12T10:26:29.269Z,28.38
2018-08-12T10:28:57.692Z,28.42
2018-08-12T10:31:25.716Z,28.69
2018-08-12T10:33:53.770Z,28.85
2018-08-12T10:36:21.813Z,28.84
2018-08-12T10:38:50.188Z,28.70
2018-08-12T10:41:18.211Z,28.68
2018-08-12T10:43:46.361Z,28.68
2018-08-12T10:46:14.721Z,28.63
2018-08-12T10:48:42.812Z,28.61
2018-08-12T10:51:10.834Z,28.56
2018-08-12T10:53:38.865Z,28.39
2018-08-12T10:56:07.009Z,28.31
2018-08-12T10:58:35.041Z,28.42
2018-08-12T11:01:03.125Z,28.45
2018-08-12T11:03:31.236Z,28.40
2018-08-12T11:05:59.269Z,28.48
2018-08-12T11:08:27.392Z,28.54
2018-08-12T11:10:55.448Z,28.84
2018-08-12T11:13:23.644Z,29.10
2018-08-12T11:15:51.664Z,29.18
2018-08-12T11:18:19.707Z,29.00
2018-08-12T11:20:47.894Z,28.78
2018-08-12T11:23:15.928Z,28.76
2018-08-12T11:25:43.978Z,28.92
2018-08-12T11:28:12.021Z,29.14
2018-08-12T11:30:40.327Z,29.17
2018-08-12T11:33:08.498Z,29.00
2018-08-12T11:35:36.759Z,29.07
2018-08-12T11:38:04.991Z,29.18
2018-08-12T11:40:33.009Z,29.28
2018-08-12T11:43:01.051Z,29.22
2018-08-12T11:45:29.367Z,29.17
2018-08-12T11:47:57.406Z,29.08
2018-08-12T11:50:25.437Z,29.27
2018-08-12T11:52:53.488Z,29.51
2018-08-12T11:55:21.526Z,29.61
2018-08-12T11:57:49.592Z,29.66
2018-08-12T12:00:19.504Z,29.74
2018-08-12T12:02:48.845Z,29.53
2018-08-12T12:05:16.868Z,29.52
2018-08-12T12:07:45.248Z,29.55
2018-08-12T12:10:15.789Z,29.67
2018-08-12T12:12:45.180Z,29.75
2018-08-12T12:15:14.048Z,29.86
2018-08-12T12:17:42.356Z,29.86
2018-08-12T12:20:11.467Z,29.86
2018-08-12T12:22:40.622Z,29.89
2018-08-12T12:25:10.822Z,30.03
2018-08-12T12:27:38.921Z,30.23
2018-08-12T12:30:08.849Z,30.43
2018-08-12T12:32:36.932Z,30.38
2018-08-12T12:35:05.704Z,30.31
2018-08-12T12:37:33.755Z,30.47
2018-08-12T12:40:01.846Z,30.62
2018-08-12T12:42:29.881Z,30.67
2018-08-12T12:44:58.193Z,30.63
2018-08-12T12:47:26.222Z,30.68
2018-08-12T12:49:54.450Z,30.82
2018-08-12T12:52:22.500Z,30.91
2018-08-12T12:54:50.555Z,30.96
2018-08-12T12:57:18.580Z,30.86
2018-08-12T12:59:46.613Z,30.72
2018-08-12T13:02:14.652Z,30.78
2018-08-12T13:04:42.690Z,30.84
2018-08-12T13:07:10.761Z,30.69
2018-08-12T13:09:38.837Z,30.64
2018-08-12T13:12:07.023Z,30.68
2018-08-12T13:14:35.056Z,30.73
2018-08-12T13:17:03.116Z,30.78
2018-08-12T13:19:31.179Z,30.81
2018-08-12T13:21:59.212Z,30.77
2018-08-12T13:24:27.253Z,30.76
2018-08-12T13:26:55.297Z,30.68
2018-08-12T13:29:23.380Z,30.61
2018-08-12T13:31:51.404Z,30.55
2018-08-12T13:34:19.547Z,30.56
2018-08-12T13:36:47.588Z,30.53
2018-08-12T13:39:15.640Z,30.60
2018-08-12T13:41:43.705Z,30.72
2018-08-12T13:44:11.720Z,30.85
2018-08-12T13:46:39.776Z,30.78
2018-08-12T13:49:07.845Z,30.62
2018-08-12T13:51:35.916Z,30.49
2018-08-12T13:54:05.149Z,30.51
2018-08-12T13:56:33.185Z,30.48
2018-08-12T13:59:01.472Z,30.53
2018-08-12T14:01:29.539Z,30.49
2018-08-12T14:03:57.573Z,30.53
2018-08-12T14:06:25.600Z,30.57
2018-08-12T14:08:53.650Z,30.39
2018-08-12T14:11:21.676Z,30.38
2018-08-12T14:13:49.919Z,30.28
2018-08-12T14:16:17.981Z,30.27
2018-08-12T14:18:46.018Z,30.24
2018-08-12T14:21:14.107Z,30.23
2018-08-12T14:23:42.094Z,30.40
2018-08-12T14:26:10.127Z,30.37
2018-08-12T14:28:38.162Z,30.37
2018-08-12T14:31:06.304Z,30.33
2018-08-12T14:33:34.508Z,30.20
2018-08-12T14:36:02.550Z,30.14
2018-08-12T14:38:30.576Z,30.06
2018-08-12T14:40:58.611Z,29.93
2018-08-12T14:43:26.779Z,29.88
2018-08-12T14:45:54.820Z,29.76
2018-08-12T14:48:22.864Z,29.68
2018-08-12T14:50:50.917Z,29.70
2018-08-12T14:53:18.933Z,29.72
2018-08-12T14:55:46.972Z,29.76
2018-08-12T14:58:15.006Z,29.83
2018-08-12T15:00:43.034Z,29.97
2018-08-12T15:03:11.207Z,29.98
2018-08-12T15:05:39.300Z,29.88
2018-08-12T15:08:07.355Z,29.86
2018-08-12T15:10:35.409Z,29.91
2018-08-12T15:13:03.440Z,29.90
2018-08-12T15:15:31.606Z,29.89
2018-08-12T15:17:59.650Z,29.85
2018-08-12T15:20:27.693Z,29.88
2018-08-12T15:22:55.948Z,29.89
2018-08-12T15:25:23.934Z,29.89
2018-08-12T15:27:52.050Z,29.95
2018-08-12T15:30:20.186Z,29.87
2018-08-12T15:32:48.225Z,29.87
2018-08-12T15:35:16.278Z,29.87
2018-08-12T15:37:44.458Z,29.83
2018-08-12T15:40:13.618Z,29.87
2018-08-12T15:42:42.135Z,29.93
2018-08-12T15:45:12.551Z,29.88
2018-08-12T15:47:41.102Z,29.86
2018-08-12T15:50:09.972Z,29.84
2018-08-12T15:52:38.053Z,29.80
2018-08-12T15:55:06.499Z,29.77
2018-08-12T15:57:34.705Z,29.84
2018-08-12T16:00:03.101Z,29.86
2018-08-12T16:02:31.228Z,29.79
2018-08-12T16:04:59.305Z,29.63
2018-08-12T16:07:27.340Z,29.49
2018-08-12T16:09:55.365Z,29.46
2018-08-12T16:12:23.403Z,29.37
2018-08-12T16:14:51.440Z,29.29
2018-08-12T16:17:19.614Z,29.27
2018-08-12T16:19:47.649Z,29.34
2018-08-12T16:24:51.078Z,29.33
2018-08-12T16:27:19.100Z,29.33
2018-08-12T16:29:47.254Z,29.29
2018-08-12T16:32:15.241Z,29.35
2018-08-12T16:34:43.325Z,29.33
2018-08-12T16:37:11.508Z,29.39
2018-08-12T16:39:39.544Z,29.49
2018-08-12T16:42:07.832Z,29.45
2018-08-12T16:44:35.862Z,29.38
2018-08-12T16:47:05.372Z,29.35
2018-08-12T16:49:33.403Z,29.31
2018-08-12T16:52:01.440Z,29.13
2018-08-12T16:54:29.505Z,29.02
2018-08-12T16:56:57.657Z,28.96
2018-08-12T16:59:25.691Z,28.91
2018-08-12T17:01:53.727Z,28.84
2018-08-12T17:04:21.881Z,28.80
2018-08-12T17:06:49.977Z,28.75
2018-08-12T17:09:17.963Z,28.71
2018-08-12T17:11:45.996Z,28.72
2018-08-12T17:14:14.029Z,28.72
2018-08-12T17:16:42.066Z,28.72
2018-08-12T17:19:10.283Z,28.70
2018-08-12T17:21:38.321Z,28.65
2018-08-12T17:24:06.340Z,28.58
2018-08-12T17:26:34.373Z,28.54
2018-08-12T17:29:02.401Z,28.49
2018-08-12T17:31:30.493Z,28.42
2018-08-12T17:33:58.542Z,28.40
2018-08-12T17:36:26.584Z,28.40
2018-08-12T17:38:54.640Z,28.38
2018-08-12T17:41:22.907Z,28.35
2018-08-12T17:43:50.932Z,28.33
2018-08-12T17:46:18.949Z,28.22
2018-08-12T17:48:47.138Z,28.16
2018-08-12T17:51:15.176Z,28.11
2018-08-12T17:53:43.199Z,28.07
2018-08-12T17:56:11.544Z,28.05
2018-08-12T17:58:39.580Z,28.03
2018-08-12T18:01:07.818Z,27.99
2018-08-12T18:03:35.841Z,27.96
2018-08-12T18:06:04.712Z,27.91
2018-08-12T18:08:32.732Z,27.85
2018-08-12T18:11:00.882Z,27.79
2018-08-12T18:13:28.901Z,27.71
2018-08-12T18:15:56.925Z,27.63
2018-08-12T18:18:24.955Z,27.55
2018-08-12T18:20:52.978Z,27.48
2018-08-12T18:23:21.078Z,27.40
2018-08-12T18:25:49.109Z,27.32
2018-08-12T18:28:17.246Z,27.23
2018-08-12T18:30:45.275Z,27.15
2018-08-12T18:33:13.310Z,27.08
2018-08-12T18:35:41.424Z,27.01
2018-08-12T18:38:09.786Z,26.93
2018-08-12T18:40:37.829Z,26.86
2018-08-12T18:43:05.884Z,26.72
2018-08-12T18:45:33.877Z,26.61
2018-08-12T18:48:02.090Z,26.53
2018-08-12T18:50:30.142Z,26.46
2018-08-12T18:52:58.175Z,26.37
2018-08-12T18:55:26.197Z,26.30
2018-08-12T18:57:54.227Z,26.27
2018-08-12T19:00:22.262Z,26.22
2018-08-12T19:02:50.513Z,26.17
2018-08-12T19:05:18.540Z,26.11
2018-08-12T19:07:46.587Z,26.05
2018-08-12T19:10:14.623Z,26.00
2018-08-12T19:12:43.144Z,25.94
2018-08-12T19:15:12.042Z,25.88
2018-08-12T19:17:40.448Z,25.81
2018-08-12T19:20:09.433Z,25.74
2018-08-12T19:22:38.361Z,25.68
2018-08-12T19:25:06.739Z,25.62
2018-08-12T19:27:35.073Z,25.57
2018-08-12T19:30:03.581Z,25.50
2018-08-12T19:32:31.615Z,25.43
2018-08-12T19:34:59.636Z,25.38
2018-08-12T19:37:27.681Z,25.33
2018-08-12T19:39:55.713Z,25.29
2018-08-12T19:42:23.759Z,25.20
2018-08-12T19:44:52.323Z,25.12
2018-08-12T19:47:20.419Z,25.02
2018-08-12T19:49:48.436Z,24.97
2018-08-12T19:52:16.470Z,24.88
2018-08-12T19:54:44.645Z,24.84
2018-08-12T19:57:13.270Z,24.82
2018-08-12T19:59:41.369Z,24.77
2018-08-12T20:02:09.453Z,24.74
2018-08-12T20:04:37.512Z,24.72
2018-08-12T20:07:05.901Z,24.69
2018-08-12T20:09:33.972Z,24.66
2018-08-12T20:12:02.251Z,24.63
2018-08-12T20:14:30.700Z,24.60
2018-08-12T20:16:58.792Z,24.56
2018-08-12T20:19:27.033Z,24.52
2018-08-12T20:21:55.257Z,24.49
2018-08-12T20:24:23.322Z,24.40
2018-08-12T20:26:51.508Z,24.33
2018-08-12T20:29:19.645Z,24.32
2018-08-12T20:31:47.676Z,24.31
2018-08-12T20:34:15.697Z,24.29
2018-08-12T20:36:44.013Z,24.27
2018-08-12T20:39:13.066Z,24.25
2018-08-12T20:41:41.781Z,24.19
2018-08-12T20:44:09.893Z,24.16
2018-08-12T20:46:37.945Z,24.12
2018-08-12T20:49:06.177Z,24.07
2018-08-12T20:51:34.201Z,24.00
2018-08-12T20:54:02.234Z,24.00
2018-08-12T20:56:30.270Z,23.95
2018-08-12T20:58:58.294Z,23.89
2018-08-12T21:02:01.671Z,23.83
2018-08-12T21:04:29.685Z,23.78
2018-08-12T21:06:57.724Z,23.73
2018-08-12T21:09:25.920Z,23.69
2018-08-12T21:11:54.030Z,23.68
2018-08-12T21:14:22.018Z,23.65
2018-08-12T21:16:50.060Z,23.62
2018-08-12T21:19:18.140Z,23.58
2018-08-12T21:21:46.183Z,23.54
2018-08-12T21:24:14.204Z,23.49
2018-08-12T21:26:42.233Z,23.45
2018-08-12T21:29:10.418Z,23.43
2018-08-12T21:31:38.469Z,23.41
2018-08-12T21:34:06.501Z,23.36
2018-08-12T21:36:34.546Z,23.31
2018-08-12T21:39:02.555Z,23.27
2018-08-12T21:41:30.576Z,23.23
2018-08-12T21:43:58.610Z,23.21
2018-08-12T21:46:26.657Z,23.18
2018-08-12T21:48:54.720Z,23.14
2018-08-12T21:51:22.753Z,23.11
2018-08-12T21:53:50.790Z,23.09
2018-08-12T21:56:18.840Z,23.06
2018-08-12T21:58:46.871Z,23.03
2018-08-12T22:01:14.912Z,23.02
2018-08-12T22:03:42.933Z,22.96
2018-08-12T22:06:10.981Z,22.92
2018-08-12T22:08:39.003Z,22.90
2018-08-12T22:11:07.056Z,22.87
2018-08-12T22:13:35.101Z,22.81
2018-08-12T22:16:03.127Z,22.80
2018-08-12T22:18:31.464Z,22.77
2018-08-12T22:20:59.504Z,22.76
2018-08-12T22:23:27.536Z,22.71
2018-08-12T22:25:55.554Z,22.70
2018-08-12T22:28:27.044Z,22.67
2018-08-12T22:30:55.077Z,22.61
2018-08-12T22:33:23.100Z,22.58
2018-08-12T22:35:51.148Z,22.57
2018-08-12T22:38:19.361Z,22.56
2018-08-12T22:40:47.397Z,22.55
2018-08-12T22:43:15.430Z,22.53
2018-08-12T22:45:43.474Z,22.50
2018-08-12T22:48:11.488Z,22.47
2018-08-12T22:50:39.513Z,22.42
2018-08-12T22:53:07.566Z,22.36
2018-08-12T22:55:35.592Z,22.31
2018-08-12T22:58:04.632Z,22.27
2018-08-12T23:00:32.783Z,22.23
2018-08-12T23:03:01.001Z,22.17
2018-08-12T23:05:29.016Z,22.12
2018-08-12T23:08:01.247Z,22.10
2018-08-12T23:10:29.464Z,22.07
2018-08-12T23:12:57.506Z,22.03
2018-08-12T23:15:36.813Z,22.00
2018-08-12T23:18:04.940Z,21.95
2018-08-12T23:20:32.984Z,21.94
2018-08-12T23:23:01.021Z,21.93
2018-08-12T23:25:35.588Z,21.91
2018-08-12T23:28:03.772Z,21.88
2018-08-12T23:30:31.791Z,21.87
2018-08-12T23:32:59.824Z,21.86
2018-08-12T23:35:27.853Z,21.86
2018-08-12T23:37:55.884Z,21.83
2018-08-12T23:40:23.908Z,21.83
2018-08-12T23:42:52.092Z,21.81
2018-08-12T23:45:20.109Z,21.81
2018-08-12T23:47:48.128Z,21.79
2018-08-12T23:50:16.175Z,21.75
2018-08-12T23:52:44.194Z,21.74
2018-08-12T23:55:12.233Z,21.72
2018-08-12T23:57:40.305Z,21.70
